createdAt,value
2022-10-20T00:01:07.499Z,5.50
2022-10-20T00:06:12.425Z,5.40
2022-10-20T00:11:18.472Z,5.40
2022-10-20T00:16:22.610Z,5.40
2022-10-20T00:21:27.897Z,5.50
2022-10-20T00:26:33.436Z,5.40
2022-10-20T00:31:36.218Z,5.30
2022-10-20T00:36:39.982Z,5.40
2022-10-20T00:41:44.080Z,5.40
2022-10-20T00:46:46.868Z,5.50
2022-10-20T00:51:50.543Z,5.40
2022-10-20T00:56:56.586Z,5.40
2022-10-20T01:02:00.613Z,5.50
2022-10-20T01:07:04.735Z,5.40
2022-10-20T01:12:20.956Z,5.40
2022-10-20T01:17:33.011Z,5.40
2022-10-20T01:22:56.494Z,5.60
2022-10-20T01:28:07.765Z,5.60
2022-10-20T01:33:19.396Z,5.70
2022-10-20T01:38:29.650Z,5.70
2022-10-20T01:43:38.786Z,5.60
2022-10-20T01:48:42.978Z,5.60
2022-10-20T01:53:45.757Z,5.60
2022-10-20T01:59:25.438Z,5.30
2022-10-20T02:04:36.122Z,5.30
2022-10-20T02:09:49.911Z,5.20
2022-10-20T02:14:55.143Z,4.90
2022-10-20T02:19:59.093Z,4.70
2022-10-20T02:25:02.403Z,4.40
2022-10-20T02:30:10.164Z,4.20
2022-10-20T02:35:20.347Z,4.10
2022-10-20T02:40:23.238Z,4.10
2022-10-20T02:45:27.320Z,4.30
2022-10-20T02:50:30.088Z,4.30
2022-10-20T02:55:32.852Z,4.20
2022-10-20T03:00:36.957Z,4.10
2022-10-20T03:05:41.738Z,4.10
2022-10-20T03:10:44.742Z,4.00
2022-10-20T03:15:48.905Z,3.80
2022-10-20T03:20:51.989Z,3.80
2022-10-20T03:25:54.738Z,3.80
2022-10-20T03:30:58.965Z,3.80
2022-10-20T03:36:01.719Z,4.30
2022-10-20T03:41:04.582Z,4.90
2022-10-20T03:46:11.365Z,5.50
2022-10-20T03:51:15.195Z,5.80
2022-10-20T03:56:20.816Z,6.00
2022-10-20T04:01:31.093Z,6.20
2022-10-20T04:06:33.923Z,6.30
2022-10-20T04:11:36.755Z,6.40
2022-10-20T04:16:42.035Z,6.50
2022-10-20T04:21:51.844Z,6.50
2022-10-20T04:26:54.600Z,6.70
2022-10-20T04:31:58.984Z,6.70
2022-10-20T04:37:01.723Z,6.70
2022-10-20T04:42:04.509Z,6.90
2022-10-20T04:47:08.587Z,6.90
2022-10-20T04:52:11.477Z,6.90
2022-10-20T04:57:14.470Z,7.00
2022-10-20T05:02:18.764Z,7.00
2022-10-20T05:07:21.549Z,7.10
2022-10-20T05:12:24.402Z,7.30
2022-10-20T05:17:30.803Z,7.50
2022-10-20T05:22:33.801Z,7.60
2022-10-20T05:27:36.861Z,7.80
2022-10-20T05:32:40.964Z,7.90
2022-10-20T05:37:43.779Z,8.00
2022-10-20T05:42:46.598Z,8.00
2022-10-20T05:47:50.721Z,8.20
2022-10-20T05:52:53.929Z,8.20
2022-10-20T05:57:56.677Z,8.30
2022-10-20T06:03:01.058Z,8.30
2022-10-20T06:08:03.892Z,8.30
2022-10-20T06:13:06.630Z,8.40
2022-10-20T06:18:10.751Z,8.50
2022-10-20T06:23:13.482Z,8.70
2022-10-20T06:28:16.653Z,8.80
2022-10-20T06:33:20.839Z,8.90
2022-10-20T06:38:24.009Z,9.10
2022-10-20T06:43:27.225Z,9.20
2022-10-20T06:48:31.411Z,9.30
2022-10-20T06:53:36.474Z,9.50
2022-10-20T06:58:40.394Z,9.50
2022-10-20T07:03:45.995Z,9.70
2022-10-20T07:08:51.012Z,10.40
2022-10-20T07:13:54.029Z,11.90
2022-10-20T07:18:58.383Z,12.50
2022-10-20T07:24:02.381Z,13.40
2022-10-20T07:29:05.965Z,14.60
2022-10-20T07:34:27.936Z,14.80
2022-10-20T07:39:31.042Z,15.50
2022-10-20T07:44:33.805Z,16.20
2022-10-20T07:49:45.337Z,17.30
2022-10-20T07:54:48.298Z,18.80
2022-10-20T07:59:51.037Z,18.70
2022-10-20T08:04:55.180Z,19.40
2022-10-20T08:09:57.935Z,21.50
2022-10-20T08:15:06.580Z,20.60
2022-10-20T08:25:29.968Z,23.10
2022-10-20T08:30:34.685Z,22.80
2022-10-20T08:35:40.368Z,21.60
2022-10-20T08:40:46.112Z,21.10
2022-10-20T08:45:48.905Z,21.30
2022-10-20T08:50:54.560Z,20.70
2022-10-20T08:55:57.417Z,20.20
2022-10-20T09:01:02.036Z,21.10
2022-10-20T09:06:09.713Z,21.50
2022-10-20T09:11:17.547Z,20.90
2022-10-20T09:16:40.493Z,21.00
2022-10-20T09:21:48.316Z,21.00
2022-10-20T09:26:58.630Z,20.80
2022-10-20T09:32:16.686Z,21.00
2022-10-20T09:37:26.745Z,21.50
2022-10-20T09:42:31.400Z,22.80
2022-10-20T09:47:35.959Z,21.90
2022-10-20T09:52:47.683Z,21.10
2022-10-20T09:57:50.993Z,21.30
2022-10-20T10:03:21.401Z,22.40
2022-10-20T10:08:27.615Z,24.20
2022-10-20T10:13:32.875Z,22.80
2022-10-20T10:18:36.875Z,23.10
2022-10-20T10:23:54.117Z,24.70
2022-10-20T10:28:59.373Z,23.90
2022-10-20T10:34:42.561Z,24.80
2022-10-20T10:39:46.941Z,24.30
2022-10-20T10:44:59.779Z,24.00
2022-10-20T10:50:25.068Z,25.50
2022-10-20T10:55:48.165Z,27.60
2022-10-20T11:01:01.113Z,25.40
2022-10-20T11:06:12.303Z,24.60
2022-10-20T11:11:28.393Z,24.20
2022-10-20T11:16:40.941Z,24.00
2022-10-20T11:21:58.612Z,24.40
2022-10-20T11:27:08.745Z,24.30
2022-10-20T11:32:21.005Z,23.50
2022-10-20T11:37:28.962Z,23.80
2022-10-20T11:42:40.929Z,23.10
2022-10-20T11:47:46.362Z,22.00
2022-10-20T11:53:09.641Z,23.60
2022-10-20T11:58:41.442Z,25.40
2022-10-20T12:04:06.045Z,25.60
2022-10-20T12:09:36.007Z,23.40
2022-10-20T12:14:43.985Z,26.50
2022-10-20T12:19:51.730Z,25.80
2022-10-20T12:25:18.250Z,23.90
2022-10-20T12:30:45.214Z,24.80
2022-10-20T12:36:24.708Z,24.60
2022-10-20T12:41:30.059Z,25.30
2022-10-20T12:46:37.670Z,25.20
2022-10-20T12:51:49.713Z,26.60
2022-10-20T12:56:57.298Z,25.30
2022-10-20T13:02:39.601Z,23.90
2022-10-20T13:08:04.558Z,23.70
2022-10-20T13:13:44.993Z,23.60
2022-10-20T13:18:50.613Z,23.10
2022-10-20T13:24:04.014Z,23.70
2022-10-20T13:29:13.973Z,24.40
2022-10-20T13:34:21.156Z,23.30
2022-10-20T13:39:35.879Z,22.60
2022-10-20T13:44:48.859Z,20.50
2022-10-20T13:50:00.496Z,19.80
2022-10-20T13:55:07.327Z,17.90
2022-10-20T14:00:19.730Z,17.30
2022-10-20T14:05:24.002Z,18.40
2022-10-20T14:10:33.095Z,19.70
2022-10-20T14:15:38.045Z,21.10
2022-10-20T14:20:41.774Z,21.00
2022-10-20T14:25:46.740Z,19.50
2022-10-20T14:30:51.229Z,19.50
2022-10-20T14:35:56.202Z,19.30
2022-10-20T14:41:00.679Z,18.40
2022-10-20T14:46:04.739Z,18.70
2022-10-20T14:51:35.234Z,18.10
2022-10-20T14:56:45.381Z,17.90
2022-10-20T15:02:01.245Z,17.00
2022-10-20T15:07:06.595Z,17.30
2022-10-20T15:12:16.795Z,17.50
2022-10-20T15:17:41.370Z,16.40
2022-10-20T15:22:44.370Z,15.30
2022-10-20T15:27:48.653Z,14.70
2022-10-20T15:32:51.976Z,14.20
2022-10-20T15:37:56.422Z,13.90
2022-10-20T15:43:00.551Z,13.70
2022-10-20T15:48:03.351Z,13.60
2022-10-20T15:53:06.161Z,13.30
2022-10-20T15:58:10.490Z,13.10
2022-10-20T16:03:17.535Z,12.90
2022-10-20T16:08:20.330Z,12.70
2022-10-20T16:13:24.501Z,12.60
2022-10-20T16:18:27.353Z,12.40
2022-10-20T16:23:30.215Z,12.30
2022-10-20T16:28:35.277Z,12.30
2022-10-20T16:33:38.045Z,12.10
2022-10-20T16:38:40.927Z,12.10
2022-10-20T16:43:46.923Z,11.90
2022-10-20T16:48:50.103Z,11.90
2022-10-20T16:53:55.122Z,11.80
2022-10-20T16:59:01.865Z,11.70
2022-10-20T17:04:07.202Z,11.70
2022-10-20T17:09:10.315Z,11.60
2022-10-20T17:14:14.419Z,11.70
2022-10-20T17:19:17.253Z,11.60
2022-10-20T17:24:20.127Z,11.60
2022-10-20T17:29:26.997Z,11.60
2022-10-20T17:34:29.811Z,11.60
2022-10-20T17:39:32.712Z,11.50
2022-10-20T17:44:36.824Z,11.60
2022-10-20T17:49:39.589Z,11.50
2022-10-20T17:54:42.328Z,11.50
2022-10-20T17:59:53.424Z,11.50
2022-10-20T18:04:57.557Z,11.50
2022-10-20T18:10:00.312Z,11.40
2022-10-20T18:15:11.979Z,11.40
2022-10-20T18:20:14.755Z,11.40
2022-10-20T18:25:17.751Z,11.50
2022-10-20T18:30:21.841Z,11.40
2022-10-20T18:35:24.546Z,11.30
2022-10-20T18:40:27.767Z,11.50
2022-10-20T18:45:35.777Z,11.40
2022-10-20T18:50:38.693Z,11.50
2022-10-20T18:55:42.244Z,11.50
2022-10-20T19:00:59.341Z,11.50
2022-10-20T19:06:05.164Z,11.60
2022-10-20T19:11:11.705Z,11.50
2022-10-20T19:16:18.131Z,11.50
2022-10-20T19:21:22.132Z,11.60
2022-10-20T19:26:26.675Z,11.60
2022-10-20T19:31:33.025Z,11.70
2022-10-20T19:36:36.014Z,11.70
2022-10-20T19:41:38.869Z,11.60
2022-10-20T19:46:44.087Z,11.70
2022-10-20T19:51:47.088Z,11.60
2022-10-20T19:56:49.826Z,11.60
2022-10-20T20:01:53.958Z,11.50
2022-10-20T20:07:01.685Z,11.40
2022-10-20T20:12:05.177Z,11.40
2022-10-20T20:17:11.118Z,11.30
2022-10-20T20:22:14.093Z,11.40
2022-10-20T20:27:16.828Z,11.30
2022-10-20T20:32:20.914Z,11.50
2022-10-20T20:37:23.661Z,11.40
2022-10-20T20:42:26.470Z,11.50
2022-10-20T20:47:33.371Z,11.60
2022-10-20T20:52:36.092Z,11.60
2022-10-20T20:57:39.097Z,11.50
2022-10-20T21:02:46.521Z,11.50
2022-10-20T21:07:49.251Z,11.50
2022-10-20T21:12:52.253Z,11.50
2022-10-20T21:17:56.414Z,11.50
2022-10-20T21:22:59.143Z,11.50
2022-10-20T21:28:02.051Z,11.50
2022-10-20T21:33:06.178Z,11.50
2022-10-20T21:38:08.986Z,11.60
2022-10-20T21:43:14.076Z,11.60
2022-10-20T21:48:18.164Z,11.60
2022-10-20T21:53:20.911Z,11.70
2022-10-20T21:58:23.689Z,11.80
2022-10-20T22:03:27.885Z,11.90
2022-10-20T22:08:30.816Z,11.80
2022-10-20T22:13:34.510Z,11.80
2022-10-20T22:18:38.652Z,11.80
2022-10-20T22:23:42.154Z,11.80
2022-10-20T22:28:44.878Z,11.80
2022-10-20T22:33:48.920Z,11.80
2022-10-20T22:38:52.300Z,11.90
2022-10-20T22:43:55.091Z,11.90
2022-10-20T22:54:08.019Z,11.80
2022-10-20T22:59:10.832Z,11.80
2022-10-20T23:04:15.308Z,11.80
2022-10-20T23:09:18.158Z,11.80
2022-10-20T23:14:21.158Z,11.90
2022-10-20T23:19:25.214Z,11.90
2022-10-20T23:24:27.980Z,11.90
2022-10-20T23:29:30.722Z,11.90
2022-10-20T23:39:42.570Z,11.80
2022-10-20T23:44:45.412Z,11.80
2022-10-20T23:49:49.550Z,11.80
2022-10-20T23:54:52.315Z,11.80
2022-10-20T23:59:55.075Z,11.80
